Time;durP1;ratioP1;P1;durP2;ratioP2;P2;SDS_P1;SDS_P2;PMS_P1;PMS_P2;Temp;Humidity;BMP_temperature;BMP_pressure;BME280_temperature;BME280_humidity;BME280_pressure;Samples;Min_cycle;Max_cycle;Signal;HPM_P1;HPM_P2
2020/12/05 00:00:58;;;;;;;3.20;2.20;;;19.00;23.50;;;;;;5093722;28;20213;-50
2020/12/05 00:03:23;;;;;;;2.40;2.20;;;19.00;23.50;;;;;;5093925;28;20154;-51
2020/12/05 00:05:49;;;;;;;2.27;2.10;;;19.00;23.50;;;;;;5093614;28;20632;-51
2020/12/05 00:08:14;;;;;;;2.90;2.40;;;19.00;23.50;;;;;;5093747;28;20165;-51
2020/12/05 00:10:40;;;;;;;2.10;1.90;;;19.00;23.50;;;;;;5093695;28;20162;-51
2020/12/05 00:13:06;;;;;;;2.30;2.00;;;19.00;23.50;;;;;;5075647;28;20176;-51
2020/12/05 00:15:35;;;;;;;2.83;2.60;;;19.00;23.50;;;;;;5075997;28;20617;-51
2020/12/05 00:18:03;;;;;;;3.25;2.83;;;19.00;23.50;;;;;;5093653;28;20197;-52
2020/12/05 00:20:29;;;;;;;2.03;1.90;;;19.00;23.50;;;;;;5093019;28;20628;-52
2020/12/05 00:22:55;;;;;;;2.47;2.27;;;19.00;23.50;;;;;;5093753;28;20154;-51
2020/12/05 00:25:20;;;;;;;1.70;1.60;;;19.00;23.50;;;;;;5096133;28;20604;-52
2020/12/05 00:27:46;;;;;;;4.20;2.00;;;19.00;23.50;;;;;;5097881;28;20260;-52
2020/12/05 00:30:12;;;;;;;2.40;2.20;;;19.00;23.60;;;;;;5097672;28;20248;-52
2020/12/05 00:32:37;;;;;;;2.63;2.03;;;19.00;23.50;;;;;;5079942;28;20216;-52
2020/12/05 00:35:06;;;;;;;2.10;1.90;;;19.00;23.50;;;;;;5097062;28;20605;-51
2020/12/05 00:37:32;;;;;;;2.30;2.10;;;19.00;23.50;;;;;;5097637;28;20694;-51
2020/12/05 00:39:58;;;;;;;2.30;2.03;;;19.00;23.50;;;;;;5097467;28;20170;-52
2020/12/05 00:42:26;;;;;;;2.60;1.88;;;19.00;23.60;;;;;;5097636;28;20183;-52
2020/12/05 00:44:53;;;;;;;2.25;2.00;;;19.00;23.60;;;;;;5097371;28;20170;-52
2020/12/05 00:47:19;;;;;;;2.30;2.10;;;19.00;23.60;;;;;;5097656;28;20186;-52
2020/12/05 00:49:48;;;;;;;2.72;2.25;;;19.00;23.70;;;;;;5096705;28;20150;-52
2020/12/05 00:52:13;;;;;;;2.40;2.20;;;18.90;23.60;;;;;;5097454;28;20193;-52
2020/12/05 00:54:39;;;;;;;2.67;2.30;;;18.90;23.60;;;;;;5097384;28;20170;-52
2020/12/05 00:57:05;;;;;;;2.20;2.00;;;18.90;23.60;;;;;;5097307;28;20629;-52
2020/12/05 00:59:34;;;;;;;3.15;2.63;;;19.00;23.70;;;;;;5097221;28;20185;-52
2020/12/05 01:01:59;;;;;;;1.85;1.75;;;18.90;23.60;;;;;;5079122;28;20192;-52
2020/12/05 01:04:25;;;;;;;2.20;2.00;;;18.90;23.60;;;;;;5097316;28;20150;-52
2020/12/05 01:06:50;;;;;;;2.00;1.90;;;18.90;23.60;;;;;;5096766;28;20165;-52
2020/12/05 01:09:16;;;;;;;2.30;2.20;;;18.90;23.70;;;;;;5079250;28;20201;-51
2020/12/05 01:11:45;;;;;;;2.30;2.10;;;18.90;23.70;;;;;;5097036;28;20230;-51
2020/12/05 01:14:10;;;;;;;2.50;2.30;;;18.90;23.70;;;;;;5097083;28;20162;-51
2020/12/05 01:16:36;;;;;;;2.17;1.97;;;19.00;23.70;;;;;;5096682;28;20571;-52
2020/12/05 01:19:02;;;;;;;2.80;2.43;;;19.00;23.70;;;;;;5096803;28;20161;-52
2020/12/05 01:21:27;;;;;;;2.05;1.90;;;19.00;23.70;;;;;;5078282;28;20197;-52
2020/12/05 01:23:53;;;;;;;2.40;2.20;;;19.00;23.60;;;;;;5096886;28;20177;-51
2020/12/05 01:26:22;;;;;;;2.20;2.00;;;19.00;23.60;;;;;;5096760;28;20154;-51
2020/12/05 01:28:48;;;;;;;2.58;2.20;;;19.00;23.60;;;;;;5078704;28;20158;-51
2020/12/05 01:31:13;;;;;;;2.90;2.17;;;19.00;23.60;;;;;;5096489;28;20279;-52
2020/12/05 01:33:39;;;;;;;2.27;2.07;;;19.00;23.60;;;;;;5096734;28;20505;-52
2020/12/05 01:36:05;;;;;;;2.93;2.37;;;19.00;23.50;;;;;;5094923;28;20161;-51
2020/12/05 01:38:34;;;;;;;2.80;2.50;;;19.00;23.50;;;;;;5096592;28;20168;-52
2020/12/05 01:41:06;;;;;;;2.60;2.30;;;19.00;23.50;;;;;;5096275;28;20419;-51
2020/12/05 01:43:32;;;;;;;1.75;1.65;;;19.00;23.50;;;;;;5096618;28;20180;-50
2020/12/05 01:46:05;;;;;;;2.50;2.30;;;19.10;23.60;;;;;;5096163;28;20178;-51
2020/12/05 01:48:34;;;;;;;3.00;2.55;;;19.10;23.60;;;;;;5096287;28;20446;-51
2020/12/05 01:51:00;;;;;;;2.35;2.15;;;19.10;23.60;;;;;;5095743;28;20169;-51
2020/12/05 01:53:26;;;;;;;2.17;1.97;;;19.20;23.60;;;;;;5078227;28;20178;-51
2020/12/05 01:55:52;;;;;;;2.67;2.13;;;19.20;23.60;;;;;;5077678;28;20398;-52
2020/12/05 01:58:19;;;;;;;2.90;2.40;;;19.20;23.60;;;;;;5096309;28;20542;-51
2020/12/05 02:00:45;;;;;;;2.17;1.98;;;19.20;23.60;;;;;;5095814;28;20214;-51
2020/12/05 02:03:15;;;;;;;1.98;1.83;;;19.20;23.70;;;;;;5096136;28;20158;-51
2020/12/05 02:06:06;;;;;;;1.73;1.60;;;19.20;23.60;;;;;;5095812;28;20212;-52
2020/12/05 02:08:48;;;;;;;2.40;2.15;;;19.30;23.70;;;;;;5096082;28;20154;-52
2020/12/05 02:11:19;;;;;;;2.28;2.08;;;19.30;23.70;;;;;;5095748;28;20605;-52
2020/12/05 02:13:47;;;;;;;2.75;2.47;;;19.30;23.70;;;;;;5095970;28;20161;-51
2020/12/05 02:16:15;;;;;;;3.30;2.30;;;19.40;23.80;;;;;;5077400;28;20567;-52
2020/12/05 02:18:43;;;;;;;1.90;1.80;;;19.40;23.80;;;;;;5095842;28;20160;-52
2020/12/05 02:21:11;;;;;;;2.22;2.08;;;19.40;23.60;;;;;;5095388;28;20192;-51
2020/12/05 02:23:37;;;;;;;3.08;2.10;;;19.40;23.50;;;;;;5095948;28;20627;-53
2020/12/05 02:26:09;;;;;;;1.73;1.63;;;19.50;23.60;;;;;;5095593;28;20230;-52
2020/12/05 02:28:35;;;;;;;2.45;2.25;;;19.50;23.50;;;;;;5095641;28;20153;-51
2020/12/05 02:31:03;;;;;;;2.70;2.10;;;19.50;23.50;;;;;;5095466;28;20165;-52
2020/12/05 02:33:29;;;;;;;1.80;1.70;;;19.50;23.40;;;;;;5095637;28;20223;-51
2020/12/05 02:35:55;;;;;;;1.90;1.53;;;19.60;23.40;;;;;;5095002;28;20554;-50
2020/12/05 02:38:34;;;;;;;2.13;1.93;;;19.60;23.30;;;;;;5095452;28;20583;-50
2020/12/05 02:41:00;;;;;;;2.13;1.73;;;19.60;23.30;;;;;;5095005;28;20249;-51
2020/12/05 02:43:26;;;;;;;2.10;1.92;;;19.70;23.30;;;;;;5095224;28;20162;-51
2020/12/05 02:45:54;;;;;;;1.98;1.85;;;19.70;23.90;;;;;;5095167;28;20679;-51
2020/12/05 02:48:20;;;;;;;1.88;1.77;;;19.70;23.30;;;;;;5094697;28;20264;-51
2020/12/05 02:50:46;;;;;;;1.93;1.83;;;19.70;23.20;;;;;;5094663;28;20237;-51
2020/12/05 02:53:11;;;;;;;2.27;2.07;;;19.70;23.20;;;;;;5095114;28;20418;-51
2020/12/05 02:55:37;;;;;;;2.60;2.40;;;19.80;23.20;;;;;;5094982;28;20543;-51
2020/12/05 02:58:03;;;;;;;1.50;1.40;;;19.80;23.20;;;;;;5094851;28;20580;-51
2020/12/05 03:00:29;;;;;;;2.07;1.87;;;19.80;23.10;;;;;;5094789;28;20596;-50
2020/12/05 03:02:54;;;;;;;2.20;2.00;;;19.80;23.10;;;;;;5094936;28;20917;-51
2020/12/05 03:05:20;;;;;;;1.93;1.83;;;19.80;23.10;;;;;;5076338;28;20260;-50
2020/12/05 03:07:46;;;;;;;2.37;1.93;;;19.90;23.10;;;;;;5094922;28;20659;-51
2020/12/05 03:10:14;;;;;;;1.85;1.75;;;19.90;23.10;;;;;;5094564;28;20240;-51
2020/12/05 03:12:40;;;;;;;2.22;2.03;;;19.90;23.60;;;;;;5094774;28;20153;-51
2020/12/05 03:15:06;;;;;;;1.70;1.60;;;19.90;23.10;;;;;;5076467;28;20177;-51
2020/12/05 03:17:32;;;;;;;2.17;2.00;;;19.90;23.60;;;;;;5094612;28;20277;-51
2020/12/05 03:19:57;;;;;;;1.70;1.60;;;19.90;23.10;;;;;;5093965;28;20407;-51
2020/12/05 03:22:23;;;;;;;1.53;1.43;;;19.90;23.10;;;;;;5076691;28;20196;-51
2020/12/05 03:24:49;;;;;;;2.43;1.90;;;19.90;23.00;;;;;;5094658;28;20161;-51
2020/12/05 03:27:15;;;;;;;1.77;1.60;;;19.90;23.00;;;;;;5094433;28;20922;-50
2020/12/05 03:29:41;;;;;;;2.33;2.07;;;19.90;23.10;;;;;;5094434;28;20775;-51
2020/12/05 03:32:18;;;;;;;2.07;1.87;;;19.90;23.00;;;;;;5076426;28;20515;-50
2020/12/05 03:34:44;;;;;;;1.63;1.52;;;19.90;23.00;;;;;;5094161;28;20410;-50
2020/12/05 03:37:11;;;;;;;1.77;1.67;;;20.00;23.10;;;;;;5076403;28;20631;-52
2020/12/05 03:39:37;;;;;;;2.30;2.10;;;20.00;23.10;;;;;;5094152;28;20737;-51
2020/12/05 03:42:05;;;;;;;2.23;2.13;;;20.00;23.10;;;;;;5094267;28;20159;-51
2020/12/05 03:44:31;;;;;;;1.73;1.63;;;20.00;23.10;;;;;;5076225;28;20617;-51
2020/12/05 03:46:57;;;;;;;2.00;1.80;;;20.00;23.10;;;;;;5094167;28;20158;-51
2020/12/05 03:49:23;;;;;;;1.63;1.53;;;20.00;23.60;;;;;;5093991;28;20166;-50
2020/12/05 03:51:48;;;;;;;2.00;1.90;;;20.70;23.60;;;;;;5093682;28;20400;-50
2020/12/05 03:54:14;;;;;;;1.93;1.83;;;20.00;23.10;;;;;;5094134;28;20165;-51
2020/12/05 03:56:40;;;;;;;1.57;1.47;;;20.00;23.10;;;;;;5093880;28;20450;-51
2020/12/05 03:59:06;;;;;;;1.83;1.73;;;20.00;23.10;;;;;;5093465;28;20192;-51
2020/12/05 04:01:32;;;;;;;1.70;1.40;;;20.00;23.10;;;;;;5093802;28;20459;-51
2020/12/05 04:03:57;;;;;;;1.80;1.70;;;20.00;23.60;;;;;;5094077;28;20404;-51
2020/12/05 04:06:23;;;;;;;2.07;1.93;;;20.00;23.10;;;;;;5093398;28;20236;-51
2020/12/05 04:08:48;;;;;;;1.30;1.20;;;20.00;23.10;;;;;;5094033;28;20529;-51
2020/12/05 04:11:14;;;;;;;2.03;1.80;;;20.00;23.10;;;;;;5093654;28;20162;-51
2020/12/05 04:13:40;;;;;;;1.70;1.60;;;20.00;23.10;;;;;;5093800;28;20146;-51
2020/12/05 04:16:05;;;;;;;2.03;1.87;;;20.00;23.10;;;;;;5075635;28;20173;-51
2020/12/05 04:18:31;;;;;;;2.20;2.00;;;20.00;23.10;;;;;;5093556;28;20190;-51
2020/12/05 04:20:57;;;;;;;1.77;1.60;;;20.00;23.10;;;;;;5093184;28;20597;-51
2020/12/05 04:23:22;;;;;;;1.70;1.60;;;20.00;23.10;;;;;;5093865;28;20628;-52
2020/12/05 04:25:48;;;;;;;3.23;1.97;;;20.00;23.00;;;;;;5093564;28;20162;-52
2020/12/05 04:28:14;;;;;;;2.03;1.43;;;20.10;23.10;;;;;;5093713;28;20161;-50
2020/12/05 04:30:39;;;;;;;2.40;2.20;;;20.10;23.10;;;;;;5093698;28;20183;-51
2020/12/05 04:33:06;;;;;;;1.90;1.70;;;20.10;23.10;;;;;;5093675;28;20166;-51
2020/12/05 04:35:32;;;;;;;1.65;1.55;;;20.10;23.00;;;;;;5093058;28;20575;-51
2020/12/05 04:37:57;;;;;;;1.50;1.40;;;20.10;23.00;;;;;;5075417;28;20702;-51
2020/12/05 04:40:23;;;;;;;1.67;1.50;;;20.10;23.00;;;;;;5093175;28;20170;-51
2020/12/05 04:42:49;;;;;;;1.83;1.50;;;20.20;23.10;;;;;;5093621;28;20155;-51
2020/12/05 04:45:16;;;;;;;2.03;1.45;;;20.20;37.50;;;;;;5075351;28;20158;-51
2020/12/05 04:47:43;;;;;;;1.70;1.60;;;20.20;23.00;;;;;;5093508;28;20185;-51
2020/12/05 04:50:10;;;;;;;1.42;1.33;;;20.20;22.90;;;;;;5092807;28;20170;-51
2020/12/05 04:52:48;;;;;;;2.15;2.00;;;20.20;22.90;;;;;;5093565;28;20609;-51
2020/12/05 04:55:14;;;;;;;3.70;1.92;;;20.20;22.80;;;;;;5093237;28;20166;-51
2020/12/05 04:58:03;;;;;;;1.80;1.70;;;20.30;22.90;;;;;;5093533;28;20186;-51
2020/12/05 05:00:29;;;;;;;1.55;1.45;;;20.30;22.90;;;;;;5093253;28;20213;-51
2020/12/05 05:02:58;;;;;;;1.90;1.80;;;20.30;22.80;;;;;;5075397;28;20162;-51
2020/12/05 05:05:26;;;;;;;1.95;1.60;;;20.30;22.80;;;;;;5092902;28;20620;-51
2020/12/05 05:07:54;;;;;;;1.80;1.70;;;20.30;22.80;;;;;;5093438;28;20166;-51
2020/12/05 05:10:24;;;;;;;1.30;1.20;;;20.40;22.80;;;;;;5093840;28;20158;-51
2020/12/05 05:12:51;;;;;;;1.67;1.58;;;20.40;22.80;;;;;;5097222;28;20180;-51
2020/12/05 05:15:31;;;;;;;1.65;1.55;;;20.40;22.70;;;;;;5097039;28;20158;-51
2020/12/05 05:18:04;;;;;;;2.72;1.92;;;20.40;22.70;;;;;;5097053;28;20197;-51
2020/12/05 05:20:37;;;;;;;2.95;1.45;;;20.50;22.70;;;;;;5096358;28;20150;-50
2020/12/05 05:23:09;;;;;;;1.83;1.70;;;20.50;22.70;;;;;;5096881;28;20153;-51
2020/12/05 05:26:03;;;;;;;1.55;1.45;;;20.50;22.70;;;;;;5078722;28;20523;-51
2020/12/05 05:28:40;;;;;;;1.73;1.50;;;20.50;22.60;;;;;;5093358;28;20595;-51
2020/12/05 05:33:49;;;;;;;1.88;1.67;;;20.60;22.60;;;;;;5096993;28;20589;-51
2020/12/05 05:36:29;;;;;;;1.80;1.70;;;20.60;22.60;;;;;;5096068;28;20213;-51
2020/12/05 05:39:11;;;;;;;1.52;1.42;;;20.70;22.60;;;;;;5096390;28;20149;-51
2020/12/05 05:41:38;;;;;;;1.58;1.48;;;20.70;22.50;;;;;;5096800;28;20162;-51
2020/12/05 05:44:12;;;;;;;1.60;1.50;;;20.70;22.50;;;;;;5096637;28;20231;-51
2020/12/05 05:46:42;;;;;;;2.10;1.90;;;20.70;22.50;;;;;;5096330;28;20146;-51
2020/12/05 05:49:08;;;;;;;1.63;1.45;;;20.70;22.50;;;;;;5096203;28;20179;-51
2020/12/05 05:51:50;;;;;;;1.77;1.50;;;20.80;22.50;;;;;;5095766;28;20676;-51
2020/12/05 05:54:24;;;;;;;1.40;1.30;;;20.80;22.40;;;;;;5096108;28;20203;-51
2020/12/05 05:57:00;;;;;;;4.03;2.00;;;20.80;22.40;;;;;;5096043;28;20654;-51
2020/12/05 05:59:34;;;;;;;1.60;1.50;;;20.90;22.40;;;;;;5095991;28;20161;-52
2020/12/05 06:02:04;;;;;;;1.60;1.50;;;20.90;22.40;;;;;;5096117;28;20157;-51
2020/12/05 06:04:38;;;;;;;1.23;1.05;;;20.90;22.30;;;;;;5078028;28;20186;-52
2020/12/05 06:07:07;;;;;;;1.50;1.40;;;21.00;22.30;;;;;;5095922;28;20168;-51
2020/12/05 06:09:41;;;;;;;1.30;1.20;;;21.00;22.30;;;;;;5096003;28;20162;-52
2020/12/05 06:12:10;;;;;;;1.70;1.60;;;21.00;22.30;;;;;;5095855;28;20164;-52
2020/12/05 06:14:36;;;;;;;1.42;1.33;;;21.00;22.20;;;;;;5077636;28;20205;-52
2020/12/05 06:17:07;;;;;;;1.50;1.40;;;21.10;22.20;;;;;;5095744;28;20193;-52
2020/12/05 06:19:39;;;;;;;1.50;1.40;;;21.10;22.30;;;;;;5077377;28;20627;-52
2020/12/05 06:22:19;;;;;;;2.42;1.65;;;21.10;22.20;;;;;;5095277;28;20154;-52
2020/12/05 06:24:51;;;;;;;1.48;1.38;;;21.10;22.20;;;;;;5095696;28;20175;-52
2020/12/05 06:27:20;;;;;;;1.38;1.27;;;21.10;22.10;;;;;;5095784;28;20164;-52
2020/12/05 06:29:47;;;;;;;1.50;1.40;;;21.20;22.20;;;;;;5095768;28;20161;-51
2020/12/05 06:32:41;;;;;;;1.30;1.20;;;21.20;22.10;;;;;;5095612;28;20158;-51
2020/12/05 06:35:19;;;;;;;1.35;1.20;;;21.20;22.10;;;;;;5094925;28;20200;-51
2020/12/05 06:37:45;;;;;;;1.60;1.50;;;21.20;22.00;;;;;;5095400;28;20185;-52
2020/12/05 06:40:11;;;;;;;1.40;1.30;;;21.30;22.10;;;;;;5095175;28;20185;-53
2020/12/05 06:42:50;;;;;;;1.33;1.23;;;21.30;22.00;;;;;;5095454;28;20162;-53
2020/12/05 06:45:40;;;;;;;1.15;1.00;;;21.30;22.00;;;;;;5095219;28;20411;-51
2020/12/05 06:48:08;;;;;;;1.52;1.42;;;21.40;22.00;;;;;;5082816;28;20181;-51
2020/12/05 06:50:45;;;;;;;1.20;1.10;;;21.40;22.00;;;;;;5076349;28;20682;-51
2020/12/05 06:53:19;;;;;;;1.67;1.58;;;21.40;22.00;;;;;;5095135;28;20157;-52
2020/12/05 06:55:46;;;;;;;1.20;1.10;;;21.40;21.90;;;;;;5094972;28;20195;-53
2020/12/05 06:58:12;;;;;;;1.45;1.35;;;21.50;21.90;;;;;;5076984;28;20262;-53
2020/12/05 07:00:39;;;;;;;1.93;1.70;;;21.50;21.90;;;;;;5094778;28;20305;-53
2020/12/05 07:03:08;;;;;;;1.10;1.00;;;21.50;21.90;;;;;;5076866;28;20170;-53
2020/12/05 07:05:36;;;;;;;1.65;1.30;;;21.50;21.90;;;;;;5076215;28;20215;-53
2020/12/05 07:08:20;;;;;;;1.08;0.98;;;21.50;21.80;;;;;;5094708;28;20208;-52
2020/12/05 07:11:00;;;;;;;1.77;1.38;;;21.60;21.90;;;;;;5094750;28;20160;-54
2020/12/05 07:13:38;;;;;;;1.30;1.20;;;21.60;21.80;;;;;;5094570;28;20150;-53
2020/12/05 07:16:26;;;;;;;1.60;1.50;;;21.60;21.80;;;;;;5094706;28;20232;-53
2020/12/05 07:18:54;;;;;;;1.20;1.10;;;21.60;21.70;;;;;;5094768;28;20569;-53
2020/12/05 07:21:22;;;;;;;1.25;1.15;;;21.60;21.70;;;;;;5094560;28;20187;-52
2020/12/05 07:23:48;;;;;;;1.20;1.10;;;21.70;21.80;;;;;;5094767;28;20157;-53
2020/12/05 07:26:15;;;;;;;1.30;1.20;;;21.70;21.70;;;;;;5076448;28;20180;-52
2020/12/05 07:28:52;;;;;;;1.23;1.15;;;21.70;21.70;;;;;;5094657;28;20199;-53
2020/12/05 07:31:18;;;;;;;1.13;1.02;;;21.70;21.60;;;;;;5094270;28;20597;-52
2020/12/05 07:33:44;;;;;;;1.20;1.10;;;;;;;;;;5093714;28;20173;-51
2020/12/05 07:36:12;;;;;;;1.05;1.00;;;21.70;35.40;;;;;;5093903;28;20168;-53
2020/12/05 07:38:40;;;;;;;1.20;1.10;;;21.80;26.80;;;;;;5094322;28;20181;-53
2020/12/05 07:41:14;;;;;;;1.25;1.15;;;21.80;21.70;;;;;;5094015;28;20731;-52
2020/12/05 07:43:40;;;;;;;1.23;1.13;;;21.80;21.50;;;;;;5094349;28;20188;-52
2020/12/05 07:46:12;;;;;;;1.13;1.10;;;21.80;21.50;;;;;;5094111;28;20172;-52
2020/12/05 07:48:39;;;;;;;1.00;0.90;;;21.90;21.50;;;;;;5076110;28;20169;-52
2020/12/05 07:51:11;;;;;;;1.25;1.15;;;21.90;21.50;;;;;;5075585;28;20158;-52
2020/12/05 07:53:37;;;;;;;1.40;1.15;;;21.90;21.50;;;;;;5094229;28;20157;-52
2020/12/05 07:56:16;;;;;;;1.60;1.20;;;21.90;21.50;;;;;;5075796;28;20180;-51
2020/12/05 07:58:52;;;;;;;1.10;0.98;;;21.90;21.50;;;;;;5094124;28;20526;-52
2020/12/05 08:01:39;;;;;;;1.00;0.90;;;21.90;21.50;;;;;;5093618;28;20213;-52
2020/12/05 08:04:42;;;;;;;1.35;0.70;;;22.00;21.60;;;;;;5075965;28;20162;-52
2020/12/05 08:07:36;;;;;;;1.23;1.13;;;22.00;21.60;;;;;;5042108;28;20213;-52
2020/12/05 08:10:20;;;;;;;1.02;0.93;;;;;;;;;;5093567;28;20158;-52
2020/12/05 08:12:45;;;;;;;1.10;1.00;;;22.10;21.20;;;;;;5093839;28;20244;-53
2020/12/05 08:15:19;;;;;;;1.30;1.00;;;22.10;21.70;;;;;;5093724;28;20189;-53
2020/12/05 08:17:45;;;;;;;1.10;1.00;;;22.10;21.70;;;;;;5093575;28;20228;-52
2020/12/05 08:20:13;;;;;;;1.08;0.90;;;22.10;21.70;;;;;;5092928;28;20182;-52
2020/12/05 08:22:38;;;;;;;1.15;1.05;;;22.10;21.70;;;;;;5075934;28;20180;-52
2020/12/05 08:25:05;;;;;;;1.13;1.03;;;22.20;21.70;;;;;;5093484;28;20157;-52
2020/12/05 08:27:36;;;;;;;1.27;1.17;;;22.20;21.70;;;;;;5075589;28;20656;-52
2020/12/05 08:30:06;;;;;;;1.48;1.10;;;22.20;21.70;;;;;;5058687;28;20260;-52
2020/12/05 08:32:36;;;;;;;1.05;0.95;;;22.20;21.70;;;;;;5093648;28;20501;-52
2020/12/05 08:35:07;;;;;;;0.82;0.82;;;22.30;21.70;;;;;;5092972;28;20154;-52
2020/12/05 08:37:42;;;;;;;1.02;0.90;;;22.30;21.60;;;;;;5093484;28;20200;-53
2020/12/05 08:40:14;;;;;;;0.98;0.85;;;22.30;21.60;;;;;;5093259;28;20248;-53
2020/12/05 08:42:48;;;;;;;1.10;1.00;;;22.30;21.60;;;;;;5093595;28;20521;-52
2020/12/05 08:45:18;;;;;;;0.82;0.82;;;22.30;21.50;;;;;;5093986;28;20605;-52
2020/12/05 08:47:47;;;;;;;1.10;1.00;;;22.30;21.50;;;;;;5097558;28;20257;-52
2020/12/05 08:50:29;;;;;;;0.80;0.73;;;22.30;21.40;;;;;;5096603;28;20237;-53
2020/12/05 08:53:03;;;;;;;0.95;0.93;;;22.40;21.50;;;;;;5097413;28;20161;-53
2020/12/05 08:55:30;;;;;;;0.90;0.70;;;22.40;21.40;;;;;;5097039;28;20152;-53
2020/12/05 08:58:00;;;;;;;1.25;1.08;;;22.40;21.40;;;;;;5097163;28;20641;-53
2020/12/05 09:00:27;;;;;;;1.00;0.90;;;22.40;21.40;;;;;;5096923;28;20213;-53
2020/12/05 09:02:53;;;;;;;1.15;0.98;;;22.40;21.40;;;;;;5097226;28;20154;-52
2020/12/05 09:05:19;;;;;;;0.77;0.70;;;22.40;21.40;;;;;;5078330;28;20175;-51
2020/12/05 09:07:58;;;;;;;1.40;1.20;;;22.40;21.40;;;;;;5097151;28;20248;-51
2020/12/05 09:10:26;;;;;;;1.10;1.00;;;22.40;21.90;;;;;;5096985;28;20181;-52
2020/12/05 09:12:52;;;;;;;1.20;0.93;;;22.40;21.40;;;;;;5097478;28;20173;-52
2020/12/05 09:15:18;;;;;;;0.85;0.85;;;22.40;21.40;;;;;;5096711;28;20161;-52
2020/12/05 09:17:44;;;;;;;1.08;0.80;;;22.50;21.40;;;;;;5096804;28;20186;-51
2020/12/05 09:20:18;;;;;;;0.82;0.82;;;22.50;21.40;;;;;;5096335;28;20154;-52
2020/12/05 09:22:52;;;;;;;0.80;0.80;;;22.50;21.40;;;;;;5097096;28;20199;-52
2020/12/05 09:25:29;;;;;;;1.25;1.00;;;22.50;21.40;;;;;;5096292;28;20156;-52
2020/12/05 09:27:55;;;;;;;1.23;1.13;;;22.50;21.40;;;;;;5096606;28;20160;-52
2020/12/05 09:30:23;;;;;;;0.95;0.80;;;22.50;21.40;;;;;;5096472;28;20176;-53
2020/12/05 09:32:50;;;;;;;0.95;0.90;;;22.50;21.30;;;;;;5097026;28;20164;-52
2020/12/05 09:35:18;;;;;;;0.70;0.70;;;22.50;21.30;;;;;;5096425;28;20154;-52
2020/12/05 09:37:44;;;;;;;0.90;0.90;;;22.50;21.30;;;;;;5096310;28;20178;-53
2020/12/05 09:40:13;;;;;;;0.90;0.90;;;22.50;21.30;;;;;;5078120;28;20548;-52
2020/12/05 09:42:40;;;;;;;0.80;0.80;;;22.60;21.30;;;;;;5078248;28;20548;-52
2020/12/05 09:45:07;;;;;;;1.10;1.00;;;22.50;21.30;;;;;;5095935;28;20158;-52
2020/12/05 09:47:34;;;;;;;1.00;0.90;;;22.60;21.30;;;;;;5096329;28;20232;-52
2020/12/05 09:49:59;;;;;;;0.73;0.73;;;22.60;21.30;;;;;;5095921;28;20162;-52
2020/12/05 09:52:25;;;;;;;0.80;0.70;;;22.60;21.30;;;;;;5096285;28;20630;-52
2020/12/05 09:54:54;;;;;;;0.70;0.67;;;22.60;21.30;;;;;;5077705;28;20620;-52
2020/12/05 09:57:19;;;;;;;1.00;0.90;;;22.60;21.30;;;;;;5094805;28;20194;-53
2020/12/05 09:59:47;;;;;;;0.87;0.87;;;22.60;21.30;;;;;;5095657;28;20220;-53
2020/12/05 10:02:13;;;;;;;1.48;1.15;;;22.50;21.30;;;;;;5095786;28;20162;-52
2020/12/05 10:04:39;;;;;;;1.10;1.00;;;22.60;21.40;;;;;;5095376;28;20158;-52
2020/12/05 10:07:05;;;;;;;1.40;0.90;;;22.50;21.30;;;;;;5096059;28;20165;-52
2020/12/05 10:09:32;;;;;;;1.20;0.90;;;22.50;21.30;;;;;;5096044;28;20454;-53
2020/12/05 10:11:58;;;;;;;0.60;0.60;;;22.50;21.30;;;;;;5096162;28;20172;-52
2020/12/05 10:14:24;;;;;;;0.60;0.60;;;22.50;21.30;;;;;;5095815;28;20241;-52
2020/12/05 10:16:49;;;;;;;0.77;0.77;;;22.50;21.40;;;;;;5077619;28;20701;-52
2020/12/05 10:19:16;;;;;;;1.13;1.03;;;22.50;21.40;;;;;;5095636;28;20555;-52
2020/12/05 10:21:47;;;;;;;0.80;0.80;;;22.50;21.40;;;;;;5095015;28;20241;-52
2020/12/05 10:24:17;;;;;;;1.17;1.08;;;22.50;21.40;;;;;;5095540;28;20149;-52
2020/12/05 10:26:53;;;;;;;1.50;1.10;;;22.50;21.40;;;;;;5095521;28;20189;-52
2020/12/05 10:29:25;;;;;;;1.05;0.93;;;22.50;21.50;;;;;;5095267;28;20628;-52
2020/12/05 10:31:53;;;;;;;0.90;0.80;;;22.50;21.40;;;;;;5095147;28;20349;-53
2020/12/05 10:34:19;;;;;;;0.77;0.77;;;22.50;21.50;;;;;;5095283;28;20165;-53
2020/12/05 10:36:46;;;;;;;0.95;0.85;;;22.50;21.50;;;;;;5094802;28;20158;-53
2020/12/05 10:39:13;;;;;;;0.70;0.70;;;22.50;21.50;;;;;;5095078;28;20629;-53
2020/12/05 10:41:38;;;;;;;0.90;0.90;;;22.50;21.50;;;;;;5077139;28;20161;-53
2020/12/05 10:44:05;;;;;;;0.98;0.80;;;22.50;21.50;;;;;;5094961;28;20650;-53
2020/12/05 10:46:43;;;;;;;1.10;1.00;;;22.40;22.10;;;;;;5095050;28;20166;-53
2020/12/05 10:49:10;;;;;;;0.70;0.60;;;22.40;21.60;;;;;;5095017;28;20138;-52
2020/12/05 10:51:36;;;;;;;0.95;0.85;;;22.40;21.60;;;;;;5094629;28;20154;-53
2020/12/05 10:54:06;;;;;;;1.15;1.05;;;22.40;21.60;;;;;;5093973;28;20190;-53
2020/12/05 10:56:38;;;;;;;0.77;0.77;;;22.40;21.60;;;;;;5094640;28;20162;-52
2020/12/05 10:59:04;;;;;;;0.73;0.73;;;22.40;21.70;;;;;;5094909;28;20153;-52
2020/12/05 11:01:30;;;;;;;0.80;0.73;;;22.40;21.70;;;;;;5094599;28;20300;-52
2020/12/05 11:03:55;;;;;;;1.40;1.00;;;22.40;21.80;;;;;;5094855;28;20236;-52
2020/12/05 11:06:22;;;;;;;1.20;1.10;;;22.40;21.90;;;;;;5076352;28;20180;-53
2020/12/05 11:08:49;;;;;;;1.23;1.13;;;22.40;21.90;;;;;;5094750;28;20188;-53
2020/12/05 11:11:15;;;;;;;1.23;0.85;;;22.30;21.80;;;;;;5094367;28;20177;-52
2020/12/05 11:13:41;;;;;;;2.60;1.30;;;22.30;21.80;;;;;;5094584;28;20710;-52
2020/12/05 11:16:07;;;;;;;1.10;1.00;;;22.30;21.80;;;;;;5076168;28;20174;-52
2020/12/05 11:18:33;;;;;;;1.10;1.00;;;22.30;21.80;;;;;;5094563;28;20833;-52
2020/12/05 11:20:58;;;;;;;0.80;0.80;;;22.30;21.80;;;;;;5094035;28;20185;-52
2020/12/05 11:23:24;;;;;;;0.97;0.87;;;22.30;21.80;;;;;;5094317;28;20408;-52
2020/12/05 11:25:50;;;;;;;1.00;0.90;;;22.30;21.80;;;;;;5094265;28;20546;-53
2020/12/05 11:28:15;;;;;;;0.83;0.83;;;22.30;21.80;;;;;;5075996;28;20620;-52
2020/12/05 11:30:41;;;;;;;0.70;0.70;;;22.30;21.80;;;;;;5094127;28;20259;-52
2020/12/05 11:33:07;;;;;;;0.90;0.70;;;22.30;21.80;;;;;;5094306;28;20513;-53
2020/12/05 11:35:36;;;;;;;0.80;0.57;;;22.30;21.80;;;;;;5093601;28;20610;-53
2020/12/05 11:38:04;;;;;;;0.95;0.85;;;22.30;21.80;;;;;;5094082;28;20200;-53
2020/12/05 11:40:30;;;;;;;2.75;0.75;;;22.30;21.80;;;;;;5093817;28;20184;-52
2020/12/05 11:42:55;;;;;;;0.90;0.63;;;22.30;21.80;;;;;;5075996;28;20248;-53
2020/12/05 11:45:21;;;;;;;1.67;0.70;;;22.30;21.80;;;;;;5093787;28;20162;-52
2020/12/05 11:47:47;;;;;;;1.50;1.00;;;22.30;21.80;;;;;;5075938;28;20166;-53
2020/12/05 11:50:12;;;;;;;0.80;0.77;;;22.30;21.80;;;;;;5093163;28;20166;-53
2020/12/05 11:52:38;;;;;;;1.23;1.00;;;22.30;21.80;;;;;;5093869;28;20190;-52
2020/12/05 11:55:04;;;;;;;1.00;0.93;;;22.30;21.80;;;;;;5093523;28;20185;-53
2020/12/05 11:57:30;;;;;;;1.13;0.85;;;22.20;21.70;;;;;;5093609;28;20200;-53
2020/12/05 11:59:56;;;;;;;1.10;0.93;;;22.20;21.70;;;;;;5093489;28;20276;-52
2020/12/05 12:02:21;;;;;;;0.70;0.70;;;22.20;21.70;;;;;;5093691;28;20621;-54
2020/12/05 12:04:47;;;;;;;0.80;0.73;;;22.20;21.70;;;;;;5093163;28;20270;-53
2020/12/05 12:07:13;;;;;;;1.30;1.20;;;22.20;21.70;;;;;;5093543;28;20291;-52
2020/12/05 12:09:39;;;;;;;1.20;1.10;;;22.20;21.70;;;;;;5093774;28;20161;-52
2020/12/05 12:12:05;;;;;;;1.98;1.27;;;22.20;21.70;;;;;;5075734;28;20659;-53
2020/12/05 12:14:30;;;;;;;1.47;0.83;;;22.20;22.30;;;;;;5093417;28;20157;-53
2020/12/05 12:16:56;;;;;;;1.33;1.03;;;22.20;21.70;;;;;;5075147;28;20954;-52
2020/12/05 12:19:22;;;;;;;1.00;0.90;;;22.20;21.70;;;;;;5075703;28;20499;-53
2020/12/05 12:21:47;;;;;;;1.00;0.90;;;22.20;21.70;;;;;;5092752;28;20523;-53
2020/12/05 12:24:13;;;;;;;0.70;0.63;;;22.10;21.70;;;;;;5093205;28;20162;-53
2020/12/05 12:26:39;;;;;;;0.87;0.73;;;22.10;21.70;;;;;;5093179;28;20605;-53
2020/12/05 12:29:04;;;;;;;1.90;1.00;;;22.10;21.70;;;;;;5093136;28;20192;-53
2020/12/05 12:31:30;;;;;;;1.53;0.97;;;22.10;21.70;;;;;;5093307;28;20189;-53
2020/12/05 12:33:56;;;;;;;1.20;1.07;;;22.10;21.70;;;;;;5092888;28;20166;-52
2020/12/05 12:36:25;;;;;;;1.20;1.00;;;22.10;21.70;;;;;;5074551;28;20161;-53
2020/12/05 12:38:50;;;;;;;1.30;1.05;;;22.10;22.20;;;;;;5074873;28;20540;-53
2020/12/05 12:41:20;;;;;;;1.47;1.27;;;22.10;21.70;;;;;;5075315;28;20671;-53
2020/12/05 12:43:47;;;;;;;1.23;1.02;;;22.10;21.70;;;;;;5093236;28;20721;-53
2020/12/05 12:46:14;;;;;;;1.77;1.48;;;22.10;21.70;;;;;;5092958;28;20290;-53
2020/12/05 12:48:40;;;;;;;1.48;1.38;;;22.00;21.60;;;;;;5075058;28;20201;-53
2020/12/05 12:51:08;;;;;;;2.03;1.75;;;22.00;21.60;;;;;;5092409;28;20150;-53
2020/12/05 12:53:33;;;;;;;1.50;1.40;;;22.00;21.60;;;;;;5074862;28;20177;-54
2020/12/05 12:56:00;;;;;;;1.53;1.40;;;22.00;21.60;;;;;;5093005;28;20165;-53
2020/12/05 12:58:44;;;;;;;1.48;1.38;;;22.00;21.60;;;;;;5093045;28;20636;-53